Flight Track Log - Related Links

Times and Time Zones

All times are in EDT time to prevent confusion due to time zone crossing. See the VH-AYT flight status page for this flight to view local times or setup timezone preferences in your user account.

Time Position Orientation Groundspeed Altitude Reporting Facility
EDT Latitude Longitude Course Direction KTS MPH feet Rate Location/Type
Mon 04:19:15 PM -27.1444 151.2461 199° South 113 130 1,700  Level Aus ATC (RADAR)
Mon 04:20:00 PM -27.1672 151.2371 199° South 153 176 2,300 771 Climbing Aus ATC (RADAR)
Mon 04:20:25 PM -27.1712 151.2529 106° East 134 154 2,600 816 Climbing Aus ATC (RADAR)
Mon 04:22:05 PM -27.1788 151.3143 98° East 121 139 4,000 835 Climbing Aus ATC (RADAR)
Mon 04:22:20 PM -27.1802 151.3238 99° East 122 140 4,200 720 Climbing Aus ATC (RADAR)
Mon 04:22:55 PM -27.1843 151.3459 102° East 124 143 4,600 720 Climbing Aus ATC (RADAR)
Mon 04:23:35 PM -27.1914 151.3738 106° East 139 160 5,100 800 Climbing Aus ATC (RADAR)
Mon 04:24:10 PM -27.1969 151.3970 105° East 132 152 5,600 857 Climbing Aus ATC (RADAR)
Mon 04:24:45 PM -27.2030 151.4210 106° East 136 157 6,100 771 Climbing Aus ATC (RADAR)
Mon 04:25:20 PM -27.2090 151.4448 106° East 136 157 6,500 435 Climbing Aus ATC (RADAR)
Mon 04:26:49 PM -27.2286 151.5159 107° East 177 204 7,000 263 Climbing Aus ATC (RADAR)
Mon 04:27:14 PM -27.2342 151.5398 105° East 185 213 7,000  Level Aus ATC (RADAR)
Mon 04:27:39 PM -27.2395 151.5638 104° East 188 216 7,000  Level Aus ATC (RADAR)
Mon 04:28:14 PM -27.2478 151.5967 106° East 185 213 7,000  Level Aus ATC (RADAR)
Mon 04:29:04 PM -27.2604 151.6447 106° East 191 220 7,000  Level Aus ATC (RADAR)
Mon 04:29:39 PM -27.2687 151.6790 105° East 195 224 7,000  Level Aus ATC (RADAR)
Mon 04:30:24 PM -27.2800 151.7229 106° East 191 220 7,000  Level Aus ATC (RADAR)
Mon 04:30:49 PM -27.2859 151.7468 106° East 189 217 7,000  Level Aus ATC (RADAR)
Mon 04:31:54 PM -27.3016 151.8103 106° East 192 221 7,000  Level Aus ATC (RADAR)
Mon 04:32:19 PM -27.3070 151.8353 104° East 194 223 7,000  Level Aus ATC (RADAR)
Mon 04:32:54 PM -27.3135 151.8701 102° East 193 222 7,000  Level Aus ATC (RADAR)
Mon 04:33:34 PM -27.3220 151.9097 104° East 193 222 7,000  Level Aus ATC (RADAR)
Mon 04:34:09 PM -27.3319 151.9430 109° East 191 220 7,000  Level Aus ATC (RADAR)
Mon 04:34:44 PM -27.3415 151.9766 108° East 191 220 7,000  Level Aus ATC (RADAR)
Mon 04:35:18 PM -27.3506 152.0103 107° East 191 220 7,000  Level Aus ATC (RADAR)
Mon 04:35:54 PM -27.3594 152.0440 106° East 191 220 7,000  Level Aus ATC (RADAR)
Mon 04:37:13 PM -27.3789 152.1215 106° East 190 219 7,000  Level Aus ATC (RADAR)
Mon 04:37:39 PM -27.3851 152.1461 106° East 193 222 7,000  Level Aus ATC (RADAR)
Mon 04:38:08 PM -27.3924 152.1755 106° East 192 221 7,000 -162 Level Aus ATC (RADAR)
Mon 04:38:53 PM -27.4040 152.2205 106° East 198 228 6,800 -300 Descending Aus ATC (RADAR)
Mon 04:39:28 PM -27.4126 152.2577 105° East 203 234 6,600 -429 Descending Aus ATC (RADAR)
Mon 04:40:03 PM -27.4217 152.2941 106° East 204 235 6,300 -429 Descending Aus ATC (RADAR)
Mon 04:40:38 PM -27.4299 152.3306 104° East 203 234 6,100 -457 Descending Aus ATC (RADAR)
Mon 04:41:48 PM -27.4474 152.4025 105° East 201 231 5,500 -467 Descending Aus ATC (RADAR)
Mon 04:42:08 PM -27.4521 152.4228 105° East 198 228 5,400 -400 Descending Aus ATC (RADAR)
Mon 04:42:33 PM -27.4573 152.4484 103° East 197 227 5,200 -500 Descending Aus ATC (RADAR)
Mon 04:43:08 PM -27.4637 152.4839 102° East 193 222 4,900 -525 Descending Aus ATC (RADAR)
Mon 04:43:53 PM -27.4729 152.5279 103° East 192 221 4,500 -560 Descending Aus ATC (RADAR)
Mon 04:44:23 PM -27.4801 152.5572 105° East 192 221 4,200 -554 Descending Aus ATC (RADAR)
Mon 04:44:58 PM -27.4898 152.5907 108° East 188 216 3,900 -560 Descending Aus ATC (RADAR)
Mon 04:45:38 PM -27.4965 152.6298 101° East 187 215 3,500 -417 Descending Aus ATC (RADAR)
Mon 04:46:53 PM -27.5103 152.7002 102° East 180 207 3,100 -379 Descending Aus ATC (RADAR)
Mon 04:47:13 PM -27.5140 152.7190 102° East 181 208 2,900 -682 Descending Aus ATC (RADAR)
Mon 04:47:37 PM -27.5177 152.7425 100° East 179 206 2,600 -508 Descending Aus ATC (RADAR)
Mon 04:48:12 PM -27.5233 152.7742 101° East 174 200 2,400 -450 Descending Aus ATC (RADAR)
Mon 04:48:57 PM -27.5314 152.8136 103° East 169 194 2,000 -525 Descending Aus ATC (RADAR)
Mon 04:49:32 PM -27.5375 152.8438 103° East 167 192 1,700 -514 Descending Aus ATC (RADAR)
Mon 04:50:07 PM -27.5429 152.8749 101° East 169 194 1,400 -160 Descending Aus ATC (RADAR)
Mon 04:50:47 PM -27.5494 152.9081 102° East 160 184 1,500 -157 Climbing Aus ATC (RADAR)
Mon 04:52:02 PM -27.5719 152.9646 114° Southeast 160 184 1,100 -316 Descending Aus ATC (RADAR)
Mon 04:52:22 PM -27.5805 152.9785 125° Southeast 161 185 1,000  Descending Aus ATC (RADAR)
Mon 04:52:47 PM -27.5911 152.9953 126° Southeast 156 180 1,100  Climbing Aus ATC (RADAR)
Mon 04:53:22 PM -27.5965 153.0187 105° East 132 152 1,000 -450 Descending Aus ATC (RADAR)
Mon 04:54:07 PM -27.5803 153.0325 37° Northeast 129 148 500 -675 Descending Aus ATC (RADAR)
Mon 04:54:42 PM -27.5748 153.0119 287° West 115 132 100 -686 Descending Aus ATC (RADAR)

Login

Don't have an account? Register now (free) for customized features, flight alerts, and more!